Time;durP1;ratioP1;P1;durP2;ratioP2;P2;SDS_P1;SDS_P2;PMS_P1;PMS_P2;Temp;Humidity;BMP_temperature;BMP_pressure;BME280_temperature;BME280_humidity;BME280_pressure;Samples;Min_cycle;Max_cycle;Signal;HPM_P1;HPM_P2
2023/04/08 00:01:31;;;;;;;0.70;0.70;;;;;;;25.03;32.47;99311.72;1853843;77;28170;-52
2023/04/08 00:04:19;;;;;;;1.12;0.50;;;;;;;25.01;32.52;99318.02;1856963;77;28194;-49
2023/04/08 00:07:08;;;;;;;0.65;0.65;;;;;;;25.00;32.54;99317.72;1867661;76;28048;-48
2023/04/08 00:09:57;;;;;;;0.50;0.50;;;;;;;25.02;32.50;99315.00;1856972;77;28095;-53
2023/04/08 00:12:47;;;;;;;0.70;0.70;;;;;;;25.02;32.53;99319.12;1863561;76;28063;-48
2023/04/08 00:15:37;;;;;;;0.50;0.50;;;;;;;25.02;32.51;99315.58;1851898;77;28128;-51
2023/04/08 00:18:26;;;;;;;0.60;0.60;;;;;;;25.02;32.48;99313.63;1834275;77;28188;-51
2023/04/08 00:21:20;;;;;;;1.50;0.57;;;;;;;25.00;32.51;99310.31;1872179;75;28003;-46
2023/04/08 00:24:09;;;;;;;0.50;0.50;;;;;;;25.02;32.52;99307.33;1851226;76;28146;-48
2023/04/08 00:26:58;;;;;;;0.50;0.50;;;;;;;25.02;32.50;99310.08;1854038;76;28136;-49
2023/04/08 00:29:46;;;;;;;0.50;0.50;;;;;;;25.03;32.52;99308.97;1861182;76;28146;-49
2023/04/08 00:32:35;;;;;;;0.68;0.68;;;;;;;25.03;32.48;99309.81;1860205;76;28241;-49
2023/04/08 00:35:23;;;;;;;0.62;0.60;;;;;;;25.00;32.46;99307.56;1865205;75;28048;-46
2023/04/08 00:38:11;;;;;;;0.85;0.85;;;;;;;25.01;32.45;99311.14;1875190;75;28042;-49
2023/04/08 00:41:00;;;;;;;0.60;0.60;;;;;;;25.02;32.40;99312.83;1856652;77;28124;-50
2023/04/08 00:43:48;;;;;;;0.50;0.50;;;;;;;25.03;32.38;99312.56;1841882;77;28152;-46
2023/04/08 00:46:39;;;;;;;0.42;0.42;;;;;;;25.02;32.39;99309.50;1857218;76;28056;-48
2023/04/08 00:49:28;;;;;;;0.40;0.40;;;;;;;25.03;32.39;99308.97;1858722;76;28092;-51
2023/04/08 00:52:16;;;;;;;0.65;0.65;;;;;;;25.01;32.34;99309.23;1868538;76;28068;-45
2023/04/08 00:55:06;;;;;;;0.57;0.57;;;;;;;25.01;32.37;99309.77;1868112;76;28169;-48
2023/04/08 00:57:55;;;;;;;0.57;0.57;;;;;;;25.03;32.33;99308.97;1864802;76;28092;-51
2023/04/08 01:00:52;;;;;;;0.68;0.57;;;;;;;25.03;32.30;99313.09;1832108;77;28198;-48
2023/04/08 01:03:44;;;;;;;0.60;0.60;;;;;;;25.02;32.32;99310.88;1850784;77;28009;-47
2023/04/08 01:06:41;;;;;;;0.53;0.53;;;;;;;25.01;32.33;99313.36;1858079;76;28125;-48
2023/04/08 01:09:32;;;;;;;0.47;0.47;;;;;;;24.99;32.29;99309.20;1758855;78;31311;-49
2023/04/08 01:12:29;;;;;;;0.50;0.50;;;;;;;24.98;32.36;99318.52;1785623;78;28093;-47
2023/04/08 01:15:19;;;;;;;0.45;0.45;;;;;;;25.00;32.34;99316.34;1821648;77;28203;-46
2023/04/08 01:18:11;;;;;;;0.40;0.40;;;;;;;24.99;32.31;99318.28;1801656;78;28211;-49
2023/04/08 01:21:00;;;;;;;1.12;0.47;;;;;;;25.00;32.29;99330.08;1804025;79;28231;-49
2023/04/08 01:24:01;;;;;;;0.40;0.40;;;;;;;24.99;32.29;99323.78;1795864;79;28321;-48
2023/04/08 01:26:50;;;;;;;0.60;0.60;;;;;;;24.98;32.34;99329.51;1808937;79;28340;-45
2023/04/08 01:29:39;;;;;;;0.40;0.40;;;;;;;24.96;32.33;99330.31;1802486;79;28283;-46
2023/04/08 01:32:30;;;;;;;0.50;0.50;;;;;;;24.97;32.30;99329.23;1808412;79;28752;-50
2023/04/08 01:35:19;;;;;;;0.60;0.60;;;;;;;24.97;32.31;99329.23;1791794;79;28208;-48
2023/04/08 01:38:13;;;;;;;0.40;0.40;;;;;;;24.97;32.34;99327.86;1803784;79;28828;-50
2023/04/08 01:41:04;;;;;;;0.40;0.40;;;;;;;24.98;32.27;99330.88;1801807;77;28211;-50
2023/04/08 01:43:55;;;;;;;0.40;0.40;;;;;;;24.98;32.29;99326.77;1791339;79;28204;-49
2023/04/08 01:46:45;;;;;;;0.42;0.42;;;;;;;24.99;32.26;99328.44;1796802;79;28260;-47
2023/04/08 01:49:34;;;;;;;0.50;0.50;;;;;;;24.96;32.29;99328.41;1802844;79;28373;-48
2023/04/08 01:52:25;;;;;;;0.53;0.53;;;;;;;24.98;32.27;99328.14;1824398;77;28210;-45
2023/04/08 01:55:14;;;;;;;0.53;0.53;;;;;;;24.97;32.29;99327.86;1844811;76;28254;-47
2023/04/08 01:58:05;;;;;;;0.50;0.50;;;;;;;24.97;32.29;99334.73;1865465;75;28091;-50
2023/04/08 02:00:56;;;;;;;0.50;0.50;;;;;;;24.97;32.29;99325.12;1858660;76;28771;-50
2023/04/08 02:03:46;;;;;;;0.63;0.63;;;;;;;24.96;32.29;99323.44;1851196;76;28322;-47
2023/04/08 02:06:36;;;;;;;0.40;0.40;;;;;;;24.94;32.30;99320.13;1863263;76;28289;-48
2023/04/08 02:09:26;;;;;;;1.50;0.60;;;;;;;24.94;32.36;99329.20;1858491;76;28068;-51
2023/04/08 02:12:14;;;;;;;0.60;0.60;;;;;;;24.96;32.33;99324.81;1866163;75;28271;-49
2023/04/08 02:15:04;;;;;;;0.30;0.30;;;;;;;24.96;32.33;99327.56;1868251;76;28114;-51
2023/04/08 02:17:58;;;;;;;0.57;0.57;;;;;;;24.94;32.34;99326.98;1865007;76;28029;-47
2023/04/08 02:20:50;;;;;;;0.40;0.40;;;;;;;24.95;32.37;99324.55;1851863;76;28144;-46
2023/04/08 02:23:41;;;;;;;0.60;0.60;;;;;;;24.94;32.37;99324.24;1859391;76;28262;-51
2023/04/08 02:26:31;;;;;;;0.50;0.50;;;;;;;24.93;32.36;99327.53;1856071;76;28022;-49
2023/04/08 02:29:20;;;;;;;0.60;0.60;;;;;;;24.94;32.39;99326.98;1856370;76;28128;-46
2023/04/08 02:32:12;;;;;;;0.40;0.40;;;;;;;24.95;32.36;99321.80;1864410;75;28150;-46
2023/04/08 02:35:02;;;;;;;0.50;0.50;;;;;;;24.91;32.43;99326.95;1846347;76;28138;-50
2023/04/08 02:37:51;;;;;;;0.37;0.37;;;;;;;24.95;32.39;99330.84;1868664;76;28164;-51
2023/04/08 02:40:40;;;;;;;0.50;0.50;;;;;;;24.94;32.42;99330.58;1848491;76;28115;-46
2023/04/08 02:43:31;;;;;;;0.50;0.50;;;;;;;24.94;32.40;99338.82;1868403;75;28074;-46
2023/04/08 02:46:20;;;;;;;0.68;0.68;;;;;;;24.94;32.43;99333.86;1864800;76;28113;-47
2023/04/08 02:49:08;;;;;;;0.37;0.37;;;;;;;24.92;32.44;99334.12;1866281;76;28126;-48
2023/04/08 02:51:57;;;;;;;0.42;0.42;;;;;;;24.93;32.42;99332.19;1865013;75;28067;-50
2023/04/08 02:54:45;;;;;;;0.50;0.50;;;;;;;24.93;32.45;99337.14;1852659;77;28533;-48
2023/04/08 02:57:34;;;;;;;0.60;0.60;;;;;;;24.92;32.46;99336.03;1869533;75;28126;-50
2023/04/08 03:00:22;;;;;;;0.37;0.37;;;;;;;24.92;32.45;99334.66;1854475;76;28035;-50
2023/04/08 03:03:11;;;;;;;0.50;0.50;;;;;;;24.92;32.46;99344.28;1859172;76;28104;-48
2023/04/08 03:05:59;;;;;;;0.37;0.37;;;;;;;24.92;32.45;99338.78;1842189;77;28130;-47
2023/04/08 03:08:47;;;;;;;0.30;0.30;;;;;;;24.91;32.46;99342.60;1840898;77;28300;-47
2023/04/08 03:11:36;;;;;;;0.42;0.42;;;;;;;24.91;32.46;99343.44;1856682;77;28171;-46
2023/04/08 03:14:24;;;;;;;0.50;0.50;;;;;;;24.92;32.47;99347.02;1861419;76;28137;-47
2023/04/08 03:17:12;;;;;;;0.40;0.40;;;;;;;24.89;32.49;99345.61;1849284;77;28047;-48
2023/04/08 03:20:03;;;;;;;0.40;0.40;;;;;;;24.87;32.54;99342.83;1857300;76;28008;-50
2023/04/08 03:22:51;;;;;;;0.40;0.40;;;;;;;24.88;32.53;99343.94;1852864;76;28044;-47
2023/04/08 03:25:40;;;;;;;0.40;0.40;;;;;;;24.89;32.53;99344.77;1864766;76;28116;-50
2023/04/08 03:28:28;;;;;;;0.45;0.45;;;;;;;24.90;32.53;99350.00;1834968;77;28166;-51
2023/04/08 03:31:16;;;;;;;0.50;0.50;;;;;;;24.90;32.50;99350.00;1868597;76;28480;-49
2023/04/08 03:34:05;;;;;;;0.80;0.40;;;;;;;24.90;32.52;99351.38;1868936;76;28103;-47
2023/04/08 03:36:53;;;;;;;0.40;0.40;;;;;;;24.88;32.53;99353.55;1865284;75;28123;-51
2023/04/08 03:39:41;;;;;;;0.25;0.25;;;;;;;24.89;32.53;99362.63;1855443;77;28053;-47
2023/04/08 03:42:30;;;;;;;0.30;0.30;;;;;;;24.88;32.53;99360.98;1849433;75;28073;-48
2023/04/08 03:45:18;;;;;;;0.50;0.50;;;;;;;24.87;32.53;99362.90;1839371;77;28180;-47
2023/04/08 03:48:07;;;;;;;0.47;0.42;;;;;;;24.88;32.55;99359.05;1859275;76;28056;-50
2023/04/08 03:50:56;;;;;;;0.30;0.30;;;;;;;24.90;32.53;99360.19;1850564;76;28174;-50
2023/04/08 03:53:44;;;;;;;0.60;0.57;;;;;;;24.88;32.51;99360.98;1852311;76;28104;-50
2023/04/08 03:56:32;;;;;;;0.40;0.40;;;;;;;24.89;32.52;99359.89;1848083;76;28157;-51
2023/04/08 03:59:21;;;;;;;0.50;0.50;;;;;;;24.90;32.51;99365.69;1875186;76;28225;-49
2023/04/08 04:02:10;;;;;;;0.30;0.30;;;;;;;24.88;32.55;99360.42;1877878;75;28170;-47
2023/04/08 04:04:58;;;;;;;0.40;0.40;;;;;;;24.88;32.52;99362.36;1855812;76;28114;-47
2023/04/08 04:07:46;;;;;;;0.80;0.40;;;;;;;24.88;32.55;99355.49;1872340;75;28065;-50
2023/04/08 04:10:35;;;;;;;0.60;0.60;;;;;;;24.86;32.59;99363.13;1877394;76;28113;-48
2023/04/08 04:13:23;;;;;;;0.35;0.35;;;;;;;24.87;32.56;99368.39;1866903;76;28184;-51
2023/04/08 04:16:11;;;;;;;0.50;0.50;;;;;;;24.85;32.54;99367.81;1877161;76;28147;-49
2023/04/08 04:19:00;;;;;;;0.80;0.40;;;;;;;24.84;32.56;99376.30;1860431;76;28089;-49
2023/04/08 04:21:49;;;;;;;0.30;0.30;;;;;;;24.85;32.55;99369.73;1872840;74;28129;-50
2023/04/08 04:24:37;;;;;;;0.40;0.40;;;;;;;24.84;32.56;99373.55;1872801;76;28137;-50
2023/04/08 04:27:25;;;;;;;0.35;0.35;;;;;;;24.83;32.62;99373.27;1865819;76;28085;-47
2023/04/08 04:30:14;;;;;;;0.40;0.40;;;;;;;24.84;32.59;99372.17;1877112;76;28090;-49
2023/04/08 04:33:02;;;;;;;0.40;0.40;;;;;;;24.84;32.61;99377.13;1877348;75;28063;-48
2023/04/08 04:35:51;;;;;;;0.40;0.40;;;;;;;24.82;32.56;99380.67;1878360;76;28052;-49
2023/04/08 04:38:39;;;;;;;0.45;0.45;;;;;;;24.82;32.57;99380.67;1867898;76;28252;-47
2023/04/08 04:41:28;;;;;;;0.30;0.30;;;;;;;24.83;32.58;99377.39;1876171;76;28620;-49
2023/04/08 04:44:16;;;;;;;0.42;0.42;;;;;;;24.80;32.58;99375.98;1880407;74;28042;-47
2023/04/08 04:47:05;;;;;;;0.30;0.30;;;;;;;24.81;32.62;99384.49;1877933;76;28117;-48
2023/04/08 04:49:53;;;;;;;0.40;0.40;;;;;;;24.81;32.61;99385.06;1854401;76;28147;-48
2023/04/08 04:52:41;;;;;;;0.30;0.30;;;;;;;24.80;32.59;99387.50;1874664;76;28060;-53
2023/04/08 04:55:30;;;;;;;0.57;0.57;;;;;;;24.80;32.59;99390.25;1871229;76;28212;-46
2023/04/08 04:58:18;;;;;;;0.40;0.40;;;;;;;24.80;32.60;99391.63;1867839;76;28092;-49
2023/04/08 05:01:07;;;;;;;0.40;0.40;;;;;;;24.80;32.63;99394.38;1856035;75;28092;-45
2023/04/08 05:03:55;;;;;;;0.60;0.50;;;;;;;24.79;32.59;99389.95;1876100;75;28108;-51
2023/04/08 05:06:43;;;;;;;0.40;0.40;;;;;;;24.80;32.59;99395.21;1866587;75;28095;-46
2023/04/08 05:09:32;;;;;;;0.60;0.60;;;;;;;24.80;32.59;99394.38;1861591;76;28048;-48
2023/04/08 05:12:20;;;;;;;0.60;0.47;;;;;;;24.79;32.60;99397.66;1872027;76;28245;-47
2023/04/08 05:15:10;;;;;;;0.40;0.40;;;;;;;24.78;32.60;99396.01;1874005;76;28123;-48
2023/04/08 05:17:58;;;;;;;0.35;0.35;;;;;;;24.81;32.60;99402.92;1878354;75;28051;-48
2023/04/08 05:20:47;;;;;;;0.50;0.50;;;;;;;24.80;32.58;99403.98;1862235;76;28146;-51
2023/04/08 05:23:36;;;;;;;0.33;0.27;;;;;;;24.79;32.57;99407.27;1875378;76;28291;-47
2023/04/08 05:26:25;;;;;;;0.40;0.40;;;;;;;24.78;32.59;99408.38;1869584;76;28110;-45
2023/04/08 05:29:13;;;;;;;0.50;0.50;;;;;;;24.78;32.58;99414.40;1877319;76;28052;-47
2023/04/08 05:32:01;;;;;;;0.55;0.37;;;;;;;24.76;32.58;99411.91;1861464;76;28183;-48
2023/04/08 05:34:50;;;;;;;0.50;0.50;;;;;;;24.78;32.57;99413.87;1875947;76;28103;-48
2023/04/08 05:37:38;;;;;;;0.60;0.60;;;;;;;24.79;32.56;99416.05;1878011;75;28126;-50
2023/04/08 05:40:27;;;;;;;0.47;0.47;;;;;;;24.77;32.57;99420.96;1871039;74;28380;-47
2023/04/08 05:43:15;;;;;;;0.40;0.40;;;;;;;24.79;32.57;99422.91;1876018;76;28131;-50
2023/04/08 05:46:07;;;;;;;0.50;0.50;;;;;;;24.77;32.54;99424.55;1876998;75;28109;-49
2023/04/08 05:48:55;;;;;;;0.30;0.30;;;;;;;24.78;32.57;99436.37;1882784;75;28013;-50
2023/04/08 05:51:44;;;;;;;0.40;0.40;;;;;;;24.79;32.55;99431.16;1878070;75;28222;-51
2023/04/08 05:54:32;;;;;;;1.30;0.50;;;;;;;24.77;32.55;99435.54;1877015;76;28155;-48
2023/04/08 05:57:21;;;;;;;0.30;0.30;;;;;;;24.73;32.60;99437.94;1864984;76;28046;-48
2023/04/08 06:00:10;;;;;;;0.50;0.50;;;;;;;24.74;32.57;99446.98;1869055;76;28141;-48
2023/04/08 06:02:59;;;;;;;0.40;0.40;;;;;;;24.76;32.59;99442.14;1872804;76;28093;-47
2023/04/08 06:05:47;;;;;;;0.33;0.33;;;;;;;24.76;32.58;99447.63;1876021;76;28217;-47
2023/04/08 06:08:36;;;;;;;0.50;0.50;;;;;;;24.76;32.59;99452.25;1850091;76;28199;-49
2023/04/08 06:11:24;;;;;;;0.35;0.35;;;;;;;24.77;32.58;99452.56;1878534;76;28050;-50
2023/04/08 06:14:13;;;;;;;0.50;0.50;;;;;;;24.68;32.64;99441.97;1862529;76;28099;-48
2023/04/08 06:17:01;;;;;;;0.30;0.30;;;;;;;24.74;32.62;99454.70;1877764;76;28143;-48
2023/04/08 06:19:49;;;;;;;0.50;0.50;;;;;;;24.73;32.62;99455.80;1867280;76;28180;-48
2023/04/08 06:22:38;;;;;;;0.40;0.40;;;;;;;24.73;32.61;99458.54;1873044;76;28080;-50
2023/04/08 06:25:26;;;;;;;0.35;0.35;;;;;;;24.75;32.63;99463.77;1863415;74;28162;-47
2023/04/08 06:28:14;;;;;;;0.80;0.40;;;;;;;24.74;32.63;99462.94;1878273;75;28000;-52
2023/04/08 06:31:03;;;;;;;0.37;0.37;;;;;;;24.71;32.71;99457.93;1876230;76;28411;-47
2023/04/08 06:33:52;;;;;;;0.40;0.40;;;;;;;24.73;32.70;99460.45;1876256;76;28196;-47
2023/04/08 06:36:40;;;;;;;0.25;0.25;;;;;;;24.72;32.70;99463.73;1869881;76;28109;-46
2023/04/08 06:39:28;;;;;;;0.35;0.35;;;;;;;24.71;32.70;99460.67;1870096;76;28042;-48
2023/04/08 06:42:16;;;;;;;0.30;0.30;;;;;;;24.70;32.76;99457.66;1876524;76;28102;-50
2023/04/08 06:45:07;;;;;;;1.00;0.42;;;;;;;24.71;32.75;99460.67;1872255;76;28104;-52
2023/04/08 06:47:55;;;;;;;0.40;0.40;;;;;;;24.71;32.77;99463.42;1876650;75;28095;-48
2023/04/08 06:50:44;;;;;;;0.40;0.40;;;;;;;24.71;32.73;99466.73;1877049;76;28079;-50
2023/04/08 06:53:32;;;;;;;0.45;0.45;;;;;;;24.70;32.79;99467.80;1850561;76;28216;-46
2023/04/08 06:56:21;;;;;;;0.43;0.43;;;;;;;24.72;32.76;99467.84;1877694;76;28126;-50
2023/04/08 06:59:09;;;;;;;0.40;0.40;;;;;;;24.71;32.78;99463.42;1871864;76;28149;-47
2023/04/08 07:01:58;;;;;;;0.53;0.53;;;;;;;24.72;32.76;99467.84;1878256;76;28202;-48
2023/04/08 07:04:46;;;;;;;0.25;0.25;;;;;;;24.72;32.77;99472.50;1877169;76;28070;-49
2023/04/08 07:07:35;;;;;;;0.40;0.40;;;;;;;24.71;32.77;99473.04;1877346;76;28195;-46
2023/04/08 07:10:23;;;;;;;0.50;0.50;;;;;;;24.68;32.85;99473.56;1861732;76;28122;-51
2023/04/08 07:13:12;;;;;;;0.53;0.53;;;;;;;24.68;32.68;99472.19;1865829;76;28640;-48
2023/04/08 07:16:00;;;;;;;1.03;1.03;;;;;;;24.66;32.16;99478.47;1864359;76;28148;-47
2023/04/08 07:18:48;;;;;;;0.80;0.80;;;;;;;24.65;29.89;99479.54;1875465;76;28197;-48
2023/04/08 07:21:37;;;;;;;1.00;1.00;;;;;;;24.58;30.04;99478.87;1869819;76;28092;-49
2023/04/08 07:24:25;;;;;;;0.77;0.60;;;;;;;24.55;30.03;99482.09;1864770;76;28130;-50
2023/04/08 07:27:14;;;;;;;0.60;0.60;;;;;;;24.55;30.45;99478.55;1870829;76;28178;-50
2023/04/08 07:30:02;;;;;;;0.50;0.50;;;;;;;24.55;30.67;99477.17;1869350;76;28153;-47
2023/04/08 07:32:51;;;;;;;0.53;0.53;;;;;;;24.57;30.78;99481.34;1877129;75;28207;-49
2023/04/08 07:35:40;;;;;;;0.78;0.50;;;;;;;24.56;30.85;99482.41;1876992;76;28221;-47
2023/04/08 07:38:29;;;;;;;0.60;0.60;;;;;;;24.57;30.90;99487.37;1868131;76;28197;-49
2023/04/08 07:41:17;;;;;;;0.60;0.60;;;;;;;24.56;31.11;99487.06;1873184;76;28114;-45
2023/04/08 07:44:06;;;;;;;0.50;0.50;;;;;;;24.56;31.20;99487.90;1872366;76;38509;-49
2023/04/08 07:46:54;;;;;;;0.80;0.80;;;;;;;24.59;31.15;99484.66;1876042;74;27992;-49
2023/04/08 07:49:44;;;;;;;0.80;0.50;;;;;;;24.62;31.16;99486.89;1870808;76;28124;-47
2023/04/08 07:52:33;;;;;;;0.57;0.57;;;;;;;24.60;31.22;99489.59;1877400;76;28052;-48
2023/04/08 07:55:21;;;;;;;0.50;0.50;;;;;;;24.60;31.31;99487.69;1876895;76;28076;-46
2023/04/08 07:58:11;;;;;;;0.60;0.60;;;;;;;24.59;31.41;99488.78;1873650;75;28115;-48
2023/04/08 08:00:59;;;;;;;0.50;0.50;;;;;;;24.60;31.49;99489.59;1870954;75;28037;-49
2023/04/08 08:03:48;;;;;;;0.57;0.57;;;;;;;24.57;31.56;99492.33;1876057;76;28158;-47
2023/04/08 08:06:36;;;;;;;0.50;0.50;;;;;;;24.58;31.63;99491.76;1877400;76;28257;-47
2023/04/08 08:09:25;;;;;;;0.67;0.67;;;;;;;24.60;31.69;99496.45;1866097;76;28055;-46
2023/04/08 08:12:13;;;;;;;0.57;0.57;;;;;;;24.61;31.74;99499.52;1873345;76;28111;-47
2023/04/08 08:15:02;;;;;;;0.40;0.40;;;;;;;24.61;31.79;99498.14;1876413;76;30018;-49
2023/04/08 08:17:50;;;;;;;0.50;0.50;;;;;;;24.60;31.86;99497.83;1874980;76;28205;-45
2023/04/08 08:20:39;;;;;;;0.42;0.42;;;;;;;24.61;31.90;99497.61;1856528;76;28183;-47
2023/04/08 08:23:27;;;;;;;0.62;0.62;;;;;;;24.62;31.91;99499.82;1876410;75;28070;-46
2023/04/08 08:26:16;;;;;;;0.50;0.50;;;;;;;24.61;32.07;99494.02;1878269;76;28192;-47
2023/04/08 08:29:07;;;;;;;0.57;0.57;;;;;;;24.56;32.13;99499.42;1859311;76;28149;-49
2023/04/08 08:31:55;;;;;;;2.00;0.60;;;;;;;24.55;32.51;99503.27;1865344;76;28187;-47
2023/04/08 08:34:42;;;;;;;0.55;0.55;;;;;;;24.56;32.26;99504.38;1872291;76;28171;-51
2023/04/08 08:37:31;;;;;;;0.57;0.57;;;;;;;24.53;32.22;99496.63;1878399;75;28238;-49
2023/04/08 08:40:19;;;;;;;0.47;0.47;;;;;;;24.51;32.20;99500.16;1871125;76;28059;-48
2023/04/08 08:43:09;;;;;;;0.60;0.50;;;;;;;24.49;32.22;99505.07;1876059;76;28056;-46
2023/04/08 08:45:58;;;;;;;0.62;0.62;;;;;;;24.47;32.24;99500.37;1878086;76;28063;-46
2023/04/08 08:48:46;;;;;;;0.60;0.60;;;;;;;24.48;32.28;99507.51;1829608;77;28086;-44
2023/04/08 08:51:36;;;;;;;1.13;0.60;;;;;;;24.48;32.27;99511.63;1812445;78;28263;-46
2023/04/08 08:54:26;;;;;;;0.47;0.47;;;;;;;24.47;32.28;99507.77;1824576;78;28352;-46
2023/04/08 08:57:19;;;;;;;0.80;0.80;;;;;;;24.47;32.33;99507.77;1804481;78;28340;-51
2023/04/08 09:00:09;;;;;;;1.60;0.50;;;;;;;24.46;32.35;99507.46;1849422;76;28198;-45
2023/04/08 09:02:57;;;;;;;0.95;0.95;;;;;;;24.42;32.76;99503.02;1825990;76;28151;-53
2023/04/08 09:05:50;;;;;;;1.52;1.15;;;;;;;24.42;32.44;99508.51;1865955;76;28007;-53
2023/04/08 09:08:38;;;;;;;1.15;1.10;;;;;;;24.42;31.92;99509.04;1865360;76;34086;-54
2023/04/08 09:11:27;;;;;;;0.85;0.85;;;;;;;24.38;32.26;99511.45;1862940;76;28163;-47
2023/04/08 09:14:23;;;;;;;1.87;1.20;;;;;;;24.37;32.90;99505.66;1864009;76;28117;-49
2023/04/08 09:17:13;;;;;;;1.00;0.85;;;;;;;24.33;33.00;99498.16;1860361;76;28192;-48
2023/04/08 09:20:11;;;;;;;1.42;0.75;;;;;;;24.30;33.64;99502.77;1868505;76;28152;-51
2023/04/08 09:23:02;;;;;;;1.10;0.90;;;;;;;24.29;33.65;99504.70;1867496;76;28119;-49
2023/04/08 09:25:53;;;;;;;0.80;0.80;;;;;;;24.29;33.87;99506.61;1857066;76;28405;-47
2023/04/08 09:28:42;;;;;;;0.80;0.80;;;;;;;24.28;33.95;99502.19;1851422;76;28241;-46
2023/04/08 09:31:36;;;;;;;0.60;0.60;;;;;;;24.30;34.01;99505.51;1864763;75;31101;-50
2023/04/08 09:34:26;;;;;;;0.65;0.62;;;;;;;24.29;34.15;99507.45;1868129;76;28130;-46
2023/04/08 09:37:15;;;;;;;0.93;0.90;;;;;;;24.29;34.24;99496.47;1846312;76;28262;-50
2023/04/08 09:40:04;;;;;;;1.90;0.90;;;;;;;24.28;34.27;99493.41;1858135;76;28250;-47
2023/04/08 09:42:54;;;;;;;0.80;0.80;;;;;;;24.30;34.26;99497.27;1863637;75;28077;-49
2023/04/08 09:45:46;;;;;;;0.60;0.60;;;;;;;24.24;33.01;99494.16;1848089;76;28326;-50
2023/04/08 09:48:38;;;;;;;1.20;1.10;;;;;;;24.26;33.07;99492.83;1860458;75;28176;-49
2023/04/08 09:51:29;;;;;;;1.20;0.93;;;;;;;24.26;33.00;99491.98;1858577;75;28185;-49
2023/04/08 09:54:21;;;;;;;1.20;0.88;;;;;;;24.25;33.19;99493.89;1863066;76;28093;-50
2023/04/08 09:57:15;;;;;;;0.80;0.80;;;;;;;24.27;33.37;99490.36;1853731;76;28205;-50
2023/04/08 10:00:07;;;;;;;1.60;0.88;;;;;;;24.22;33.50;99486.17;1846452;76;28594;-49
2023/04/08 10:03:16;;;;;;;0.93;0.93;;;;;;;24.22;33.87;99487.55;1867039;75;28043;-52
2023/04/08 10:06:07;;;;;;;1.00;0.90;;;;;;;24.13;33.10;99476.67;1838473;76;28153;-47
2023/04/08 10:08:57;;;;;;;1.07;0.97;;;;;;;24.16;32.21;99475.31;1863427;76;28065;-51
2023/04/08 10:11:46;;;;;;;0.80;0.80;;;;;;;24.16;32.58;99480.27;1844526;76;28995;-46
2023/04/08 10:14:34;;;;;;;0.80;0.80;;;;;;;24.18;32.88;99481.42;1851799;77;28630;-48
2023/04/08 10:17:28;;;;;;;0.93;0.93;;;;;;;24.21;33.02;99479.00;1857602;75;28079;-48
2023/04/08 10:20:38;;;;;;;0.90;0.90;;;;;;;24.20;33.08;99475.95;1866219;75;28163;-50
2023/04/08 10:23:29;;;;;;;1.52;0.90;;;;;;;24.24;33.06;99477.69;1854916;75;28056;-46
2023/04/08 10:26:38;;;;;;;1.00;0.90;;;;;;;24.22;33.13;99468.86;1881542;75;28255;-48
2023/04/08 10:29:31;;;;;;;1.12;1.12;;;;;;;24.24;33.31;99473.03;1887975;75;28072;-50
2023/04/08 10:32:30;;;;;;;1.27;0.80;;;;;;;24.22;33.28;99466.95;1835146;76;28188;-48
2023/04/08 10:35:20;;;;;;;1.23;1.13;;;;;;;24.24;33.38;99466.70;1876541;75;28154;-46
2023/04/08 10:38:09;;;;;;;0.87;0.87;;;;;;;24.24;33.41;99459.30;1846507;76;28231;-49
2023/04/08 10:40:58;;;;;;;1.10;1.02;;;;;;;24.22;33.47;99464.21;1862714;75;28125;-46
2023/04/08 10:43:47;;;;;;;0.90;0.90;;;;;;;24.18;32.51;99468.51;1830082;77;28246;-49
2023/04/08 10:46:38;;;;;;;0.80;0.80;;;;;;;24.09;30.59;99462.28;1865898;76;28115;-48
2023/04/08 10:49:33;;;;;;;1.00;0.95;;;;;;;23.97;29.46;99468.63;1858182;75;28135;-50
2023/04/08 10:52:22;;;;;;;0.90;0.90;;;;;;;23.95;29.64;99447.98;1866098;75;28131;-49
2023/04/08 10:55:11;;;;;;;0.80;0.80;;;;;;;23.96;30.10;99448.30;1841267;77;28053;-53
2023/04/08 10:58:07;;;;;;;1.05;1.00;;;;;;;23.96;30.66;99448.30;1814776;77;38725;-49
2023/04/08 11:00:56;;;;;;;0.80;0.80;;;;;;;23.99;31.05;99443.70;1797227;78;28310;-54
2023/04/08 11:03:45;;;;;;;0.80;0.78;;;;;;;24.03;31.37;99440.76;1811716;78;28130;-48
2023/04/08 11:06:34;;;;;;;0.80;0.80;;;;;;;24.03;31.87;99426.50;1787484;78;28352;-53
2023/04/08 11:09:22;;;;;;;0.72;0.72;;;;;;;24.05;32.13;99441.34;1807383;77;28129;-51
2023/04/08 11:12:11;;;;;;;0.97;0.97;;;;;;;24.07;32.43;99439.20;1804041;77;28208;-49
2023/04/08 11:15:00;;;;;;;1.10;1.10;;;;;;;24.06;32.60;99434.82;1801147;79;28310;-52
2023/04/08 11:17:49;;;;;;;1.75;0.98;;;;;;;24.04;32.95;99441.03;1792707;79;28340;-51
2023/04/08 11:20:39;;;;;;;1.22;0.90;;;;;;;24.05;33.03;99431.73;1802655;79;28359;-47
2023/04/08 11:23:27;;;;;;;0.80;0.80;;;;;;;24.08;33.13;99413.98;1777965;79;28331;-53
2023/04/08 11:26:16;;;;;;;1.10;1.10;;;;;;;24.06;33.27;99418.36;1776507;79;28235;-52
2023/04/08 11:29:06;;;;;;;0.80;0.80;;;;;;;24.04;33.59;99424.56;1783294;79;28361;-53
2023/04/08 11:31:55;;;;;;;0.98;0.98;;;;;;;24.08;33.70;99416.73;1783050;79;28265;-52
2023/04/08 11:34:44;;;;;;;0.80;0.80;;;;;;;24.10;33.80;99409.91;1774423;79;28408;-54
2023/04/08 11:37:40;;;;;;;0.72;0.72;;;;;;;24.08;33.87;99410.70;1770037;79;28677;-50
2023/04/08 11:40:29;;;;;;;3.30;0.90;;;;;;;24.09;33.95;99408.77;1785367;79;28236;-51
2023/04/08 11:43:17;;;;;;;0.95;0.95;;;;;;;24.08;34.01;99401.09;1813710;78;28744;-51
2023/04/08 11:46:12;;;;;;;1.00;1.00;;;;;;;24.08;33.97;99397.52;1803893;78;28256;-52
2023/04/08 11:49:05;;;;;;;1.17;1.07;;;;;;;24.09;34.07;99403.28;1809102;79;28257;-52
2023/04/08 11:51:56;;;;;;;1.00;1.00;;;;;;;24.08;34.18;99394.77;1807472;77;28284;-50
2023/04/08 11:54:47;;;;;;;1.03;0.97;;;;;;;24.08;34.20;99390.66;1807482;79;28317;-50
2023/04/08 11:57:35;;;;;;;0.80;0.80;;;;;;;24.07;34.27;99384.33;1809988;78;28846;-49
2023/04/08 12:00:26;;;;;;;0.70;0.70;;;;;;;24.07;34.31;99378.00;1825623;78;28144;-49
2023/04/08 12:03:14;;;;;;;0.98;0.98;;;;;;;24.05;34.45;99368.63;1801422;78;28363;-53
2023/04/08 12:06:06;;;;;;;0.90;0.90;;;;;;;24.07;34.42;99376.63;1865911;75;28181;-56
2023/04/08 12:08:53;;;;;;;0.90;0.90;;;;;;;24.04;34.48;99369.16;1871117;75;28160;-56
2023/04/08 12:11:42;;;;;;;0.85;0.85;;;;;;;24.05;34.55;99364.50;1871874;75;28244;-49
2023/04/08 12:14:30;;;;;;;1.00;1.00;;;;;;;24.05;34.60;99368.09;1852497;76;28091;-51
2023/04/08 12:17:19;;;;;;;0.60;0.60;;;;;;;24.07;34.61;99364.28;1873229;75;28058;-51
2023/04/08 12:20:08;;;;;;;1.30;1.20;;;;;;;24.04;34.72;99357.34;1857049;75;28142;-51
2023/04/08 12:22:56;;;;;;;1.10;0.90;;;;;;;24.04;34.71;99351.31;1851227;76;28212;-51
2023/04/08 12:25:45;;;;;;;0.95;0.90;;;;;;;24.05;34.76;99350.78;1851031;76;28173;-50
2023/04/08 12:28:34;;;;;;;1.40;0.90;;;;;;;24.05;34.81;99350.25;1896021;75;28026;-50
2023/04/08 12:31:22;;;;;;;0.93;0.93;;;;;;;24.05;34.84;99343.92;1879697;75;28154;-51
2023/04/08 12:34:10;;;;;;;0.80;0.80;;;;;;;24.04;34.89;99338.13;1855398;76;28153;-53
2023/04/08 12:36:59;;;;;;;0.90;0.90;;;;;;;24.03;34.98;99340.60;1878383;75;28039;-50
2023/04/08 12:39:48;;;;;;;1.02;1.02;;;;;;;24.02;35.03;99341.66;1858680;76;28204;-49
2023/04/08 12:42:36;;;;;;;0.85;0.85;;;;;;;24.01;35.06;99340.83;1858114;76;28223;-49
2023/04/08 12:45:25;;;;;;;0.90;0.90;;;;;;;24.03;35.01;99340.60;1854079;76;28038;-49
2023/04/08 12:48:13;;;;;;;0.90;0.90;;;;;;;24.03;35.05;99341.97;1883308;75;28054;-51
2023/04/08 12:51:02;;;;;;;1.10;1.00;;;;;;;24.01;35.20;99325.73;1858755;76;28145;-51
2023/04/08 12:53:50;;;;;;;0.70;0.70;;;;;;;24.00;35.21;99328.73;1881177;75;28022;-52
2023/04/08 12:56:38;;;;;;;0.90;0.90;;;;;;;23.98;35.28;99330.37;1868764;76;28230;-50
2023/04/08 12:59:27;;;;;;;0.90;0.90;;;;;;;24.01;35.23;99321.63;1860125;75;28144;-52
2023/04/08 13:02:15;;;;;;;1.67;0.77;;;;;;;24.00;35.32;99327.36;1875953;75;28044;-52
2023/04/08 13:05:05;;;;;;;0.97;0.97;;;;;;;23.98;35.40;99317.19;1866185;76;28239;-53
2023/04/08 13:07:53;;;;;;;1.00;1.00;;;;;;;23.97;35.39;99318.25;1842910;77;29871;-51
2023/04/08 13:10:42;;;;;;;1.00;0.90;;;;;;;24.01;35.33;99315.33;1832564;77;28422;-52
2023/04/08 13:13:31;;;;;;;0.90;0.90;;;;;;;23.98;35.46;99313.07;1824885;77;28251;-52
2023/04/08 13:16:21;;;;;;;0.80;0.80;;;;;;;23.98;35.48;99313.91;1826080;77;28161;-52
2023/04/08 13:19:09;;;;;;;0.90;0.90;;;;;;;23.97;35.40;99310.02;1803953;78;28494;-50